sensor_id;sensor_type;location;lat;lon;timestamp;P1;durP1;ratioP1;P2;durP2;ratioP2
79076;SDS011;68477;42.698;23.342;2023-05-29T00:01:12;6.97;;;4.78;;
79076;SDS011;68477;42.698;23.342;2023-05-29T00:03:38;11.73;;;4.85;;
79076;SDS011;68477;42.698;23.342;2023-05-29T00:06:04;8.65;;;4.95;;
79076;SDS011;68477;42.698;23.342;2023-05-29T00:08:31;9.50;;;4.93;;
79076;SDS011;68477;42.698;23.342;2023-05-29T00:10:57;8.50;;;5.03;;
79076;SDS011;68477;42.698;23.342;2023-05-29T00:13:23;8.18;;;4.78;;
79076;SDS011;68477;42.698;23.342;2023-05-29T00:15:48;10.73;;;5.15;;
79076;SDS011;68477;42.698;23.342;2023-05-29T00:18:13;9.70;;;5.40;;
79076;SDS011;68477;42.698;23.342;2023-05-29T00:20:39;9.15;;;4.85;;
79076;SDS011;68477;42.698;23.342;2023-05-29T00:23:05;9.90;;;5.15;;
79076;SDS011;68477;42.698;23.342;2023-05-29T00:25:31;14.50;;;5.47;;
79076;SDS011;68477;42.698;23.342;2023-05-29T00:27:57;9.32;;;5.05;;
79076;SDS011;68477;42.698;23.342;2023-05-29T00:30:23;8.52;;;4.75;;
79076;SDS011;68477;42.698;23.342;2023-05-29T00:32:49;7.80;;;5.00;;
79076;SDS011;68477;42.698;23.342;2023-05-29T00:35:14;7.28;;;4.50;;
79076;SDS011;68477;42.698;23.342;2023-05-29T00:37:40;7.80;;;4.60;;
79076;SDS011;68477;42.698;23.342;2023-05-29T00:40:05;7.75;;;5.07;;
79076;SDS011;68477;42.698;23.342;2023-05-29T00:42:32;9.20;;;4.75;;
79076;SDS011;68477;42.698;23.342;2023-05-29T00:44:57;8.88;;;5.10;;
79076;SDS011;68477;42.698;23.342;2023-05-29T00:47:23;11.75;;;5.55;;
79076;SDS011;68477;42.698;23.342;2023-05-29T00:49:48;7.65;;;5.15;;
79076;SDS011;68477;42.698;23.342;2023-05-29T00:52:17;9.35;;;6.00;;
79076;SDS011;68477;42.698;23.342;2023-05-29T00:54:44;9.65;;;5.68;;
79076;SDS011;68477;42.698;23.342;2023-05-29T00:57:11;9.93;;;5.47;;
79076;SDS011;68477;42.698;23.342;2023-05-29T00:59:38;9.90;;;5.05;;
79076;SDS011;68477;42.698;23.342;2023-05-29T01:02:04;11.82;;;6.32;;
79076;SDS011;68477;42.698;23.342;2023-05-29T01:04:31;10.57;;;5.82;;
79076;SDS011;68477;42.698;23.342;2023-05-29T01:07:02;9.43;;;5.95;;
79076;SDS011;68477;42.698;23.342;2023-05-29T01:09:28;12.13;;;6.05;;
79076;SDS011;68477;42.698;23.342;2023-05-29T01:14:53;11.93;;;6.47;;
79076;SDS011;68477;42.698;23.342;2023-05-29T01:29:02;9.15;;;5.78;;
79076;SDS011;68477;42.698;23.342;2023-05-29T01:31:31;11.05;;;6.40;;
79076;SDS011;68477;42.698;23.342;2023-05-29T01:33:59;14.05;;;7.13;;
79076;SDS011;68477;42.698;23.342;2023-05-29T01:36:26;12.07;;;6.75;;
79076;SDS011;68477;42.698;23.342;2023-05-29T01:38:52;11.50;;;6.45;;
79076;SDS011;68477;42.698;23.342;2023-05-29T01:41:19;11.82;;;7.10;;
79076;SDS011;68477;42.698;23.342;2023-05-29T01:43:47;9.93;;;6.35;;
79076;SDS011;68477;42.698;23.342;2023-05-29T01:46:14;13.82;;;6.80;;
79076;SDS011;68477;42.698;23.342;2023-05-29T01:48:40;12.02;;;7.22;;
79076;SDS011;68477;42.698;23.342;2023-05-29T01:51:07;11.25;;;6.15;;
79076;SDS011;68477;42.698;23.342;2023-05-29T01:53:33;13.48;;;7.20;;
79076;SDS011;68477;42.698;23.342;2023-05-29T01:55:58;10.40;;;6.28;;
79076;SDS011;68477;42.698;23.342;2023-05-29T01:58:24;8.15;;;5.55;;
79076;SDS011;68477;42.698;23.342;2023-05-29T02:00:51;10.13;;;6.78;;
79076;SDS011;68477;42.698;23.342;2023-05-29T02:03:17;10.35;;;7.03;;
79076;SDS011;68477;42.698;23.342;2023-05-29T02:05:43;11.85;;;7.00;;
79076;SDS011;68477;42.698;23.342;2023-05-29T02:08:08;14.38;;;6.28;;
79076;SDS011;68477;42.698;23.342;2023-05-29T02:10:33;14.52;;;7.03;;
79076;SDS011;68477;42.698;23.342;2023-05-29T02:12:59;11.10;;;6.60;;
79076;SDS011;68477;42.698;23.342;2023-05-29T02:15:24;10.15;;;6.57;;
79076;SDS011;68477;42.698;23.342;2023-05-29T02:17:50;10.60;;;5.80;;
79076;SDS011;68477;42.698;23.342;2023-05-29T02:20:15;10.98;;;6.10;;
79076;SDS011;68477;42.698;23.342;2023-05-29T02:22:41;10.82;;;6.13;;
79076;SDS011;68477;42.698;23.342;2023-05-29T02:25:07;8.57;;;5.57;;
79076;SDS011;68477;42.698;23.342;2023-05-29T02:27:32;11.35;;;6.28;;
79076;SDS011;68477;42.698;23.342;2023-05-29T02:29:59;11.02;;;6.32;;
79076;SDS011;68477;42.698;23.342;2023-05-29T02:32:24;11.93;;;5.72;;
79076;SDS011;68477;42.698;23.342;2023-05-29T02:34:52;9.85;;;5.95;;
79076;SDS011;68477;42.698;23.342;2023-05-29T02:37:18;9.48;;;6.05;;
79076;SDS011;68477;42.698;23.342;2023-05-29T02:39:43;10.38;;;6.15;;
79076;SDS011;68477;42.698;23.342;2023-05-29T02:42:09;11.30;;;6.22;;
79076;SDS011;68477;42.698;23.342;2023-05-29T02:44:34;10.52;;;6.10;;
79076;SDS011;68477;42.698;23.342;2023-05-29T02:47:00;10.38;;;6.50;;
79076;SDS011;68477;42.698;23.342;2023-05-29T02:49:25;11.77;;;5.60;;
79076;SDS011;68477;42.698;23.342;2023-05-29T02:51:51;9.20;;;5.65;;
79076;SDS011;68477;42.698;23.342;2023-05-29T02:54:21;13.50;;;5.70;;
79076;SDS011;68477;42.698;23.342;2023-05-29T02:56:49;9.15;;;5.85;;
79076;SDS011;68477;42.698;23.342;2023-05-29T02:59:15;9.82;;;5.70;;
79076;SDS011;68477;42.698;23.342;2023-05-29T03:01:41;9.52;;;5.85;;
79076;SDS011;68477;42.698;23.342;2023-05-29T03:04:06;10.15;;;6.40;;
79076;SDS011;68477;42.698;23.342;2023-05-29T03:06:32;12.90;;;6.93;;
79076;SDS011;68477;42.698;23.342;2023-05-29T03:08:57;10.23;;;6.45;;
79076;SDS011;68477;42.698;23.342;2023-05-29T03:11:24;13.98;;;6.70;;
79076;SDS011;68477;42.698;23.342;2023-05-29T03:13:50;9.15;;;5.88;;
79076;SDS011;68477;42.698;23.342;2023-05-29T03:16:15;11.30;;;6.60;;
79076;SDS011;68477;42.698;23.342;2023-05-29T03:18:41;11.70;;;5.97;;
79076;SDS011;68477;42.698;23.342;2023-05-29T03:21:06;9.50;;;5.85;;
79076;SDS011;68477;42.698;23.342;2023-05-29T03:23:32;11.43;;;6.72;;
79076;SDS011;68477;42.698;23.342;2023-05-29T03:25:58;10.68;;;5.80;;
79076;SDS011;68477;42.698;23.342;2023-05-29T03:28:24;13.00;;;6.60;;
79076;SDS011;68477;42.698;23.342;2023-05-29T03:30:50;12.50;;;6.32;;
79076;SDS011;68477;42.698;23.342;2023-05-29T03:33:16;11.77;;;6.30;;
79076;SDS011;68477;42.698;23.342;2023-05-29T03:35:42;12.57;;;6.45;;
79076;SDS011;68477;42.698;23.342;2023-05-29T03:38:07;12.75;;;6.28;;
79076;SDS011;68477;42.698;23.342;2023-05-29T03:40:34;12.90;;;6.85;;
79076;SDS011;68477;42.698;23.342;2023-05-29T03:43:00;11.55;;;7.15;;
79076;SDS011;68477;42.698;23.342;2023-05-29T03:45:25;10.95;;;5.60;;
79076;SDS011;68477;42.698;23.342;2023-05-29T03:47:50;9.32;;;6.15;;
79076;SDS011;68477;42.698;23.342;2023-05-29T03:50:16;11.50;;;5.45;;
79076;SDS011;68477;42.698;23.342;2023-05-29T03:52:42;9.15;;;5.53;;
79076;SDS011;68477;42.698;23.342;2023-05-29T03:55:10;12.00;;;5.93;;
79076;SDS011;68477;42.698;23.342;2023-05-29T03:57:39;9.07;;;5.80;;
79076;SDS011;68477;42.698;23.342;2023-05-29T04:00:09;14.48;;;6.50;;
79076;SDS011;68477;42.698;23.342;2023-05-29T04:02:37;8.05;;;5.35;;
79076;SDS011;68477;42.698;23.342;2023-05-29T04:05:04;9.90;;;5.88;;
79076;SDS011;68477;42.698;23.342;2023-05-29T04:07:34;17.38;;;7.30;;
79076;SDS011;68477;42.698;23.342;2023-05-29T04:10:02;9.00;;;5.65;;
79076;SDS011;68477;42.698;23.342;2023-05-29T04:12:27;13.68;;;5.97;;
79076;SDS011;68477;42.698;23.342;2023-05-29T04:14:53;13.18;;;5.97;;
79076;SDS011;68477;42.698;23.342;2023-05-29T04:17:19;10.25;;;6.55;;
79076;SDS011;68477;42.698;23.342;2023-05-29T04:19:44;11.85;;;6.50;;
79076;SDS011;68477;42.698;23.342;2023-05-29T04:22:10;10.93;;;6.20;;
79076;SDS011;68477;42.698;23.342;2023-05-29T04:24:35;12.82;;;6.60;;
79076;SDS011;68477;42.698;23.342;2023-05-29T04:27:01;14.45;;;8.05;;
79076;SDS011;68477;42.698;23.342;2023-05-29T04:29:26;45.60;;;19.15;;
79076;SDS011;68477;42.698;23.342;2023-05-29T04:31:53;23.80;;;8.52;;
79076;SDS011;68477;42.698;23.342;2023-05-29T04:34:20;36.25;;;13.05;;
79076;SDS011;68477;42.698;23.342;2023-05-29T04:36:46;20.60;;;9.43;;
79076;SDS011;68477;42.698;23.342;2023-05-29T04:39:12;18.67;;;9.85;;
79076;SDS011;68477;42.698;23.342;2023-05-29T04:41:38;21.42;;;10.18;;
79076;SDS011;68477;42.698;23.342;2023-05-29T04:44:07;17.60;;;9.18;;
79076;SDS011;68477;42.698;23.342;2023-05-29T04:46:35;18.33;;;9.50;;
79076;SDS011;68477;42.698;23.342;2023-05-29T04:49:00;20.83;;;8.68;;
79076;SDS011;68477;42.698;23.342;2023-05-29T04:51:29;26.45;;;9.35;;
79076;SDS011;68477;42.698;23.342;2023-05-29T04:53:55;19.60;;;9.55;;
79076;SDS011;68477;42.698;23.342;2023-05-29T04:56:21;20.60;;;10.25;;
79076;SDS011;68477;42.698;23.342;2023-05-29T04:58:47;17.40;;;9.75;;
79076;SDS011;68477;42.698;23.342;2023-05-29T05:01:13;20.48;;;10.18;;
79076;SDS011;68477;42.698;23.342;2023-05-29T05:03:42;14.55;;;9.15;;
79076;SDS011;68477;42.698;23.342;2023-05-29T05:06:08;21.52;;;10.18;;
79076;SDS011;68477;42.698;23.342;2023-05-29T05:08:34;23.85;;;9.93;;
79076;SDS011;68477;42.698;23.342;2023-05-29T05:11:00;22.98;;;10.57;;
79076;SDS011;68477;42.698;23.342;2023-05-29T05:13:26;28.58;;;10.48;;
79076;SDS011;68477;42.698;23.342;2023-05-29T05:15:52;23.80;;;9.80;;
79076;SDS011;68477;42.698;23.342;2023-05-29T05:18:18;25.20;;;11.57;;
79076;SDS011;68477;42.698;23.342;2023-05-29T05:20:44;22.80;;;10.70;;
79076;SDS011;68477;42.698;23.342;2023-05-29T05:23:10;22.58;;;12.30;;
79076;SDS011;68477;42.698;23.342;2023-05-29T05:25:35;25.20;;;11.27;;
79076;SDS011;68477;42.698;23.342;2023-05-29T05:28:02;27.67;;;10.88;;
79076;SDS011;68477;42.698;23.342;2023-05-29T05:30:30;20.95;;;10.15;;
79076;SDS011;68477;42.698;23.342;2023-05-29T05:32:56;18.98;;;9.43;;
79076;SDS011;68477;42.698;23.342;2023-05-29T05:35:26;19.90;;;9.15;;
79076;SDS011;68477;42.698;23.342;2023-05-29T05:37:51;15.18;;;8.48;;
79076;SDS011;68477;42.698;23.342;2023-05-29T05:40:17;16.50;;;7.90;;
79076;SDS011;68477;42.698;23.342;2023-05-29T05:42:43;14.65;;;7.07;;
79076;SDS011;68477;42.698;23.342;2023-05-29T05:45:08;11.98;;;6.20;;
79076;SDS011;68477;42.698;23.342;2023-05-29T05:47:34;16.52;;;6.70;;
79076;SDS011;68477;42.698;23.342;2023-05-29T05:50:00;14.30;;;7.13;;
79076;SDS011;68477;42.698;23.342;2023-05-29T05:52:25;13.23;;;5.90;;
79076;SDS011;68477;42.698;23.342;2023-05-29T05:54:55;12.10;;;5.75;;
79076;SDS011;68477;42.698;23.342;2023-05-29T05:57:20;14.10;;;5.68;;
79076;SDS011;68477;42.698;23.342;2023-05-29T05:59:46;12.75;;;5.47;;
79076;SDS011;68477;42.698;23.342;2023-05-29T06:02:11;13.77;;;6.38;;
79076;SDS011;68477;42.698;23.342;2023-05-29T06:04:37;7.88;;;5.38;;
79076;SDS011;68477;42.698;23.342;2023-05-29T06:07:02;7.97;;;5.28;;
79076;SDS011;68477;42.698;23.342;2023-05-29T06:09:28;11.10;;;5.55;;
79076;SDS011;68477;42.698;23.342;2023-05-29T06:11:54;16.45;;;6.43;;
79076;SDS011;68477;42.698;23.342;2023-05-29T06:14:20;14.82;;;6.22;;
79076;SDS011;68477;42.698;23.342;2023-05-29T06:16:45;12.75;;;5.35;;
79076;SDS011;68477;42.698;23.342;2023-05-29T06:19:12;11.88;;;6.00;;
79076;SDS011;68477;42.698;23.342;2023-05-29T06:21:39;10.70;;;5.40;;
79076;SDS011;68477;42.698;23.342;2023-05-29T06:24:05;14.60;;;6.55;;
79076;SDS011;68477;42.698;23.342;2023-05-29T06:26:30;12.65;;;5.80;;
79076;SDS011;68477;42.698;23.342;2023-05-29T06:28:56;10.00;;;5.40;;
79076;SDS011;68477;42.698;23.342;2023-05-29T06:31:21;11.75;;;5.00;;
79076;SDS011;68477;42.698;23.342;2023-05-29T06:33:46;13.10;;;4.70;;
79076;SDS011;68477;42.698;23.342;2023-05-29T06:36:12;8.75;;;3.42;;
79076;SDS011;68477;42.698;23.342;2023-05-29T06:38:38;12.50;;;4.47;;
79076;SDS011;68477;42.698;23.342;2023-05-29T06:41:03;7.95;;;5.03;;
79076;SDS011;68477;42.698;23.342;2023-05-29T06:43:29;9.10;;;4.60;;
79076;SDS011;68477;42.698;23.342;2023-05-29T06:45:54;11.55;;;5.60;;
79076;SDS011;68477;42.698;23.342;2023-05-29T06:48:20;10.00;;;4.95;;
79076;SDS011;68477;42.698;23.342;2023-05-29T06:50:46;13.07;;;4.40;;
79076;SDS011;68477;42.698;23.342;2023-05-29T06:53:12;8.85;;;4.28;;
79076;SDS011;68477;42.698;23.342;2023-05-29T06:55:38;7.63;;;3.80;;
79076;SDS011;68477;42.698;23.342;2023-05-29T06:58:05;9.05;;;4.60;;
79076;SDS011;68477;42.698;23.342;2023-05-29T07:00:30;11.82;;;4.22;;
79076;SDS011;68477;42.698;23.342;2023-05-29T07:02:56;8.80;;;4.57;;
79076;SDS011;68477;42.698;23.342;2023-05-29T07:05:21;9.02;;;4.10;;
79076;SDS011;68477;42.698;23.342;2023-05-29T07:07:47;6.50;;;4.30;;
79076;SDS011;68477;42.698;23.342;2023-05-29T07:10:13;11.68;;;4.35;;
79076;SDS011;68477;42.698;23.342;2023-05-29T07:12:38;7.70;;;3.40;;
79076;SDS011;68477;42.698;23.342;2023-05-29T07:15:04;12.23;;;3.42;;
79076;SDS011;68477;42.698;23.342;2023-05-29T07:17:30;4.90;;;3.20;;
79076;SDS011;68477;42.698;23.342;2023-05-29T07:19:55;10.88;;;4.07;;
79076;SDS011;68477;42.698;23.342;2023-05-29T07:22:20;6.90;;;3.40;;
79076;SDS011;68477;42.698;23.342;2023-05-29T07:24:46;10.20;;;4.18;;
79076;SDS011;68477;42.698;23.342;2023-05-29T07:27:11;12.02;;;5.50;;
79076;SDS011;68477;42.698;23.342;2023-05-29T07:29:37;11.45;;;5.97;;
79076;SDS011;68477;42.698;23.342;2023-05-29T07:32:02;9.25;;;6.00;;
79076;SDS011;68477;42.698;23.342;2023-05-29T07:34:27;6.80;;;3.80;;
79076;SDS011;68477;42.698;23.342;2023-05-29T07:37:03;5.72;;;3.90;;
79076;SDS011;68477;42.698;23.342;2023-05-29T07:39:30;4.00;;;2.88;;
79076;SDS011;68477;42.698;23.342;2023-05-29T07:41:57;11.65;;;5.65;;
79076;SDS011;68477;42.698;23.342;2023-05-29T07:44:22;9.45;;;4.60;;
79076;SDS011;68477;42.698;23.342;2023-05-29T07:46:48;4.38;;;2.88;;
79076;SDS011;68477;42.698;23.342;2023-05-29T07:49:14;5.93;;;3.13;;
79076;SDS011;68477;42.698;23.342;2023-05-29T07:51:40;6.63;;;2.60;;
79076;SDS011;68477;42.698;23.342;2023-05-29T07:54:06;6.93;;;3.33;;
79076;SDS011;68477;42.698;23.342;2023-05-29T07:56:31;7.72;;;4.60;;
79076;SDS011;68477;42.698;23.342;2023-05-29T07:58:58;16.40;;;7.60;;
79076;SDS011;68477;42.698;23.342;2023-05-29T08:01:24;12.00;;;6.35;;
79076;SDS011;68477;42.698;23.342;2023-05-29T08:03:52;8.50;;;3.95;;
79076;SDS011;68477;42.698;23.342;2023-05-29T08:06:18;4.45;;;2.72;;
79076;SDS011;68477;42.698;23.342;2023-05-29T08:08:44;5.88;;;2.30;;
79076;SDS011;68477;42.698;23.342;2023-05-29T08:11:09;4.05;;;2.35;;
79076;SDS011;68477;42.698;23.342;2023-05-29T08:13:35;6.35;;;2.55;;
79076;SDS011;68477;42.698;23.342;2023-05-29T08:16:01;4.40;;;2.70;;
79076;SDS011;68477;42.698;23.342;2023-05-29T08:18:27;5.97;;;3.25;;
79076;SDS011;68477;42.698;23.342;2023-05-29T08:20:55;5.40;;;3.42;;
79076;SDS011;68477;42.698;23.342;2023-05-29T08:23:20;4.75;;;2.65;;
79076;SDS011;68477;42.698;23.342;2023-05-29T08:25:46;6.10;;;3.70;;
79076;SDS011;68477;42.698;23.342;2023-05-29T08:28:12;6.55;;;3.20;;
79076;SDS011;68477;42.698;23.342;2023-05-29T08:30:39;4.07;;;2.83;;
79076;SDS011;68477;42.698;23.342;2023-05-29T08:33:05;8.60;;;3.88;;
79076;SDS011;68477;42.698;23.342;2023-05-29T08:35:30;7.72;;;3.10;;
79076;SDS011;68477;42.698;23.342;2023-05-29T08:37:55;6.50;;;3.50;;
79076;SDS011;68477;42.698;23.342;2023-05-29T08:40:21;10.95;;;5.47;;
79076;SDS011;68477;42.698;23.342;2023-05-29T08:42:47;7.03;;;3.00;;
79076;SDS011;68477;42.698;23.342;2023-05-29T08:45:18;9.90;;;3.40;;
79076;SDS011;68477;42.698;23.342;2023-05-29T08:50:14;4.70;;;2.58;;
79076;SDS011;68477;42.698;23.342;2023-05-29T08:52:41;6.18;;;3.30;;
79076;SDS011;68477;42.698;23.342;2023-05-29T08:55:07;8.50;;;4.60;;
79076;SDS011;68477;42.698;23.342;2023-05-29T08:57:33;6.13;;;3.25;;
79076;SDS011;68477;42.698;23.342;2023-05-29T09:00:00;4.32;;;2.70;;
79076;SDS011;68477;42.698;23.342;2023-05-29T09:02:30;9.38;;;5.05;;
79076;SDS011;68477;42.698;23.342;2023-05-29T09:04:55;6.97;;;4.20;;
79076;SDS011;68477;42.698;23.342;2023-05-29T09:07:22;4.68;;;3.10;;
79076;SDS011;68477;42.698;23.342;2023-05-29T09:09:47;3.95;;;2.78;;
79076;SDS011;68477;42.698;23.342;2023-05-29T09:12:14;4.40;;;3.00;;
79076;SDS011;68477;42.698;23.342;2023-05-29T09:14:41;6.72;;;3.85;;
79076;SDS011;68477;42.698;23.342;2023-05-29T09:17:07;6.85;;;3.80;;
79076;SDS011;68477;42.698;23.342;2023-05-29T09:19:35;5.10;;;3.45;;
79076;SDS011;68477;42.698;23.342;2023-05-29T09:22:03;7.43;;;4.22;;
79076;SDS011;68477;42.698;23.342;2023-05-29T09:24:33;4.53;;;2.97;;
79076;SDS011;68477;42.698;23.342;2023-05-29T09:27:01;4.22;;;3.13;;
79076;SDS011;68477;42.698;23.342;2023-05-29T09:29:32;6.00;;;4.13;;
79076;SDS011;68477;42.698;23.342;2023-05-29T09:31:59;5.90;;;3.25;;
79076;SDS011;68477;42.698;23.342;2023-05-29T09:34:26;5.38;;;3.60;;
79076;SDS011;68477;42.698;23.342;2023-05-29T09:37:00;5.80;;;3.33;;
79076;SDS011;68477;42.698;23.342;2023-05-29T09:42:16;6.80;;;3.40;;
79076;SDS011;68477;42.698;23.342;2023-05-29T09:44:43;5.57;;;3.15;;
79076;SDS011;68477;42.698;23.342;2023-05-29T09:47:16;5.18;;;3.65;;
79076;SDS011;68477;42.698;23.342;2023-05-29T09:49:42;5.70;;;3.00;;
79076;SDS011;68477;42.698;23.342;2023-05-29T09:52:14;3.90;;;2.83;;
79076;SDS011;68477;42.698;23.342;2023-05-29T09:54:45;6.35;;;3.20;;
79076;SDS011;68477;42.698;23.342;2023-05-29T09:57:12;8.23;;;3.58;;
79076;SDS011;68477;42.698;23.342;2023-05-29T09:59:40;5.93;;;3.00;;
79076;SDS011;68477;42.698;23.342;2023-05-29T10:02:09;5.57;;;3.05;;
79076;SDS011;68477;42.698;23.342;2023-05-29T10:07:08;3.97;;;3.05;;
79076;SDS011;68477;42.698;23.342;2023-05-29T10:09:41;4.53;;;2.85;;
79076;SDS011;68477;42.698;23.342;2023-05-29T10:12:09;4.65;;;3.15;;
79076;SDS011;68477;42.698;23.342;2023-05-29T10:14:36;4.47;;;3.20;;
79076;SDS011;68477;42.698;23.342;2023-05-29T10:17:05;5.32;;;3.40;;
79076;SDS011;68477;42.698;23.342;2023-05-29T10:19:33;7.57;;;3.55;;
79076;SDS011;68477;42.698;23.342;2023-05-29T10:22:01;6.00;;;3.95;;
79076;SDS011;68477;42.698;23.342;2023-05-29T10:24:29;5.13;;;2.90;;
79076;SDS011;68477;42.698;23.342;2023-05-29T10:26:55;5.90;;;3.13;;
79076;SDS011;68477;42.698;23.342;2023-05-29T10:29:41;6.30;;;3.40;;
79076;SDS011;68477;42.698;23.342;2023-05-29T10:37:46;5.40;;;3.22;;
79076;SDS011;68477;42.698;23.342;2023-05-29T10:40:15;5.03;;;3.00;;
79076;SDS011;68477;42.698;23.342;2023-05-29T10:42:48;6.55;;;3.40;;
79076;SDS011;68477;42.698;23.342;2023-05-29T10:47:56;4.47;;;3.80;;
79076;SDS011;68477;42.698;23.342;2023-05-29T10:50:45;5.10;;;3.55;;
79076;SDS011;68477;42.698;23.342;2023-05-29T10:53:22;5.35;;;3.58;;
79076;SDS011;68477;42.698;23.342;2023-05-29T10:55:50;5.72;;;3.47;;
79076;SDS011;68477;42.698;23.342;2023-05-29T11:00:45;6.60;;;4.35;;
79076;SDS011;68477;42.698;23.342;2023-05-29T11:03:15;9.38;;;3.90;;
79076;SDS011;68477;42.698;23.342;2023-05-29T11:13:52;4.65;;;3.08;;
79076;SDS011;68477;42.698;23.342;2023-05-29T11:19:07;5.20;;;3.20;;
79076;SDS011;68477;42.698;23.342;2023-05-29T11:24:26;5.05;;;3.20;;
79076;SDS011;68477;42.698;23.342;2023-05-29T11:26:55;5.68;;;3.20;;
79076;SDS011;68477;42.698;23.342;2023-05-29T11:29:27;3.70;;;2.70;;
79076;SDS011;68477;42.698;23.342;2023-05-29T11:32:02;5.95;;;3.15;;
79076;SDS011;68477;42.698;23.342;2023-05-29T11:34:35;5.47;;;2.83;;
79076;SDS011;68477;42.698;23.342;2023-05-29T11:37:04;5.22;;;3.35;;
79076;SDS011;68477;42.698;23.342;2023-05-29T11:39:29;4.25;;;2.92;;
79076;SDS011;68477;42.698;23.342;2023-05-29T11:41:58;6.53;;;2.88;;
79076;SDS011;68477;42.698;23.342;2023-05-29T11:44:25;5.45;;;2.63;;
79076;SDS011;68477;42.698;23.342;2023-05-29T11:47:04;4.90;;;2.95;;
79076;SDS011;68477;42.698;23.342;2023-05-29T11:49:32;4.28;;;2.85;;
79076;SDS011;68477;42.698;23.342;2023-05-29T11:52:12;4.85;;;3.00;;
79076;SDS011;68477;42.698;23.342;2023-05-29T11:54:42;5.72;;;3.00;;
79076;SDS011;68477;42.698;23.342;2023-05-29T11:57:17;9.32;;;3.05;;
79076;SDS011;68477;42.698;23.342;2023-05-29T11:59:43;4.53;;;3.22;;
79076;SDS011;68477;42.698;23.342;2023-05-29T12:02:09;4.22;;;2.90;;
79076;SDS011;68477;42.698;23.342;2023-05-29T12:04:35;4.95;;;3.17;;
79076;SDS011;68477;42.698;23.342;2023-05-29T12:07:00;7.05;;;3.20;;
79076;SDS011;68477;42.698;23.342;2023-05-29T12:09:26;6.25;;;4.05;;
79076;SDS011;68477;42.698;23.342;2023-05-29T12:11:53;7.93;;;3.35;;
79076;SDS011;68477;42.698;23.342;2023-05-29T12:14:19;9.45;;;4.10;;
79076;SDS011;68477;42.698;23.342;2023-05-29T12:16:45;11.50;;;4.93;;
79076;SDS011;68477;42.698;23.342;2023-05-29T12:19:11;16.98;;;5.18;;
79076;SDS011;68477;42.698;23.342;2023-05-29T12:21:36;13.43;;;4.45;;
79076;SDS011;68477;42.698;23.342;2023-05-29T12:24:07;10.60;;;4.28;;
79076;SDS011;68477;42.698;23.342;2023-05-29T12:26:32;6.53;;;3.63;;
79076;SDS011;68477;42.698;23.342;2023-05-29T12:28:58;8.93;;;3.92;;
79076;SDS011;68477;42.698;23.342;2023-05-29T12:31:28;6.47;;;3.63;;
79076;SDS011;68477;42.698;23.342;2023-05-29T12:33:54;6.35;;;3.60;;
79076;SDS011;68477;42.698;23.342;2023-05-29T12:36:25;8.43;;;4.10;;
79076;SDS011;68477;42.698;23.342;2023-05-29T12:38:51;7.65;;;3.33;;
79076;SDS011;68477;42.698;23.342;2023-05-29T12:41:27;10.13;;;3.63;;
79076;SDS011;68477;42.698;23.342;2023-05-29T12:43:57;10.20;;;3.40;;
79076;SDS011;68477;42.698;23.342;2023-05-29T12:46:23;6.22;;;3.72;;
79076;SDS011;68477;42.698;23.342;2023-05-29T12:48:54;5.82;;;3.60;;
79076;SDS011;68477;42.698;23.342;2023-05-29T12:51:27;6.47;;;4.30;;
79076;SDS011;68477;42.698;23.342;2023-05-29T12:53:53;8.82;;;4.38;;
79076;SDS011;68477;42.698;23.342;2023-05-29T12:56:22;8.45;;;4.32;;
79076;SDS011;68477;42.698;23.342;2023-05-29T12:58:50;7.03;;;3.65;;
79076;SDS011;68477;42.698;23.342;2023-05-29T13:01:15;11.18;;;3.97;;
79076;SDS011;68477;42.698;23.342;2023-05-29T13:03:41;8.40;;;3.75;;
79076;SDS011;68477;42.698;23.342;2023-05-29T13:06:07;7.22;;;3.92;;
79076;SDS011;68477;42.698;23.342;2023-05-29T13:08:32;6.40;;;3.88;;
79076;SDS011;68477;42.698;23.342;2023-05-29T13:10:58;5.60;;;3.65;;
79076;SDS011;68477;42.698;23.342;2023-05-29T13:13:23;9.35;;;3.83;;
79076;SDS011;68477;42.698;23.342;2023-05-29T13:15:48;7.00;;;3.88;;
79076;SDS011;68477;42.698;23.342;2023-05-29T13:18:14;7.43;;;4.07;;
79076;SDS011;68477;42.698;23.342;2023-05-29T13:20:40;6.18;;;3.80;;
79076;SDS011;68477;42.698;23.342;2023-05-29T13:23:05;8.85;;;3.85;;
79076;SDS011;68477;42.698;23.342;2023-05-29T13:25:30;8.23;;;3.63;;
79076;SDS011;68477;42.698;23.342;2023-05-29T13:27:56;7.38;;;4.43;;
79076;SDS011;68477;42.698;23.342;2023-05-29T13:30:21;6.47;;;3.50;;
79076;SDS011;68477;42.698;23.342;2023-05-29T13:32:47;4.65;;;3.20;;
79076;SDS011;68477;42.698;23.342;2023-05-29T13:35:13;6.65;;;3.78;;
79076;SDS011;68477;42.698;23.342;2023-05-29T13:37:38;5.90;;;3.03;;
79076;SDS011;68477;42.698;23.342;2023-05-29T13:40:04;5.97;;;3.30;;
79076;SDS011;68477;42.698;23.342;2023-05-29T13:42:31;11.68;;;3.78;;
79076;SDS011;68477;42.698;23.342;2023-05-29T13:44:57;7.50;;;3.67;;
79076;SDS011;68477;42.698;23.342;2023-05-29T13:47:22;5.88;;;2.88;;
79076;SDS011;68477;42.698;23.342;2023-05-29T13:49:48;7.85;;;3.08;;
79076;SDS011;68477;42.698;23.342;2023-05-29T13:52:15;4.20;;;2.60;;
79076;SDS011;68477;42.698;23.342;2023-05-29T13:54:41;6.45;;;2.75;;
79076;SDS011;68477;42.698;23.342;2023-05-29T13:57:07;5.38;;;2.70;;
79076;SDS011;68477;42.698;23.342;2023-05-29T13:59:33;3.03;;;1.83;;
79076;SDS011;68477;42.698;23.342;2023-05-29T14:01:59;7.82;;;2.08;;
79076;SDS011;68477;42.698;23.342;2023-05-29T14:04:25;6.85;;;2.13;;
79076;SDS011;68477;42.698;23.342;2023-05-29T14:06:51;4.15;;;1.85;;
79076;SDS011;68477;42.698;23.342;2023-05-29T14:09:17;2.88;;;1.77;;
79076;SDS011;68477;42.698;23.342;2023-05-29T14:11:47;2.50;;;1.77;;
79076;SDS011;68477;42.698;23.342;2023-05-29T14:14:12;4.32;;;2.10;;
79076;SDS011;68477;42.698;23.342;2023-05-29T14:16:38;3.13;;;2.20;;
79076;SDS011;68477;42.698;23.342;2023-05-29T14:19:03;4.85;;;2.38;;
79076;SDS011;68477;42.698;23.342;2023-05-29T14:21:29;4.07;;;2.40;;
79076;SDS011;68477;42.698;23.342;2023-05-29T14:23:54;5.05;;;2.42;;
79076;SDS011;68477;42.698;23.342;2023-05-29T14:26:20;5.18;;;2.10;;
79076;SDS011;68477;42.698;23.342;2023-05-29T14:28:45;3.75;;;2.10;;
79076;SDS011;68477;42.698;23.342;2023-05-29T14:31:11;2.75;;;1.80;;
79076;SDS011;68477;42.698;23.342;2023-05-29T14:33:36;4.32;;;2.17;;
79076;SDS011;68477;42.698;23.342;2023-05-29T14:36:02;3.83;;;2.20;;
79076;SDS011;68477;42.698;23.342;2023-05-29T14:38:28;3.35;;;1.98;;
79076;SDS011;68477;42.698;23.342;2023-05-29T14:40:53;4.30;;;2.20;;
79076;SDS011;68477;42.698;23.342;2023-05-29T14:43:19;3.45;;;2.10;;
79076;SDS011;68477;42.698;23.342;2023-05-29T14:45:44;4.88;;;1.90;;
79076;SDS011;68477;42.698;23.342;2023-05-29T14:48:10;3.20;;;1.80;;
79076;SDS011;68477;42.698;23.342;2023-05-29T14:50:36;8.07;;;2.17;;
79076;SDS011;68477;42.698;23.342;2023-05-29T14:53:01;3.72;;;2.42;;
79076;SDS011;68477;42.698;23.342;2023-05-29T14:55:28;3.22;;;2.30;;
79076;SDS011;68477;42.698;23.342;2023-05-29T14:57:55;4.47;;;2.30;;
79076;SDS011;68477;42.698;23.342;2023-05-29T15:00:21;3.78;;;2.35;;
79076;SDS011;68477;42.698;23.342;2023-05-29T15:02:46;4.45;;;2.60;;
79076;SDS011;68477;42.698;23.342;2023-05-29T15:05:12;3.97;;;1.83;;
79076;SDS011;68477;42.698;23.342;2023-05-29T15:07:37;3.92;;;2.20;;
79076;SDS011;68477;42.698;23.342;2023-05-29T15:10:03;4.10;;;2.30;;
79076;SDS011;68477;42.698;23.342;2023-05-29T15:12:29;7.20;;;2.55;;